HSP weather

Ingalls Field
Hot Springs, Virginia, United States

Public forecast

Using degrees Fahrenheit for public forecast. Weather courtesy of forecast.io.

METAR (pilot weather report)

Retrieved 2019/07/18 03:13 UTC (59 minutes ago):

KHSP 180313Z AUTO 26015G21KT 10SM OVC008 20/20 A3012 RMK AO2

TAF (pilot weather forecast)

Forecast is more than 12 hours old.

Closest forecast is Greenbrier Valley Airport, 27.4 nm (50.7 km) WSW. Retrieved 2019/07/17 00:51 UTC (1 day ago):

TAF KLWB 172349Z 1800/1824 24006KT P6SM -SHRA VCTS BKN035CB OVC100 FM180600 VRB03KT 4SM BR SCT002 BKN009 TEMPO 1808/1812 1/4SM FG VV001 FM181400 28007KT P6SM BKN018 FM181800 28007KT P6SM SCT035